Scroll down
FLIGHT INFORMATION
American Airlines

AAL520

At Arrival Gate

KDFW
 KPHX
DATE: 2020-12-05
GATE: 
GATE DEPARTURE: 14:14
TAKEOFF: 14:28
DATE: 2020-12-05
GATE: 23
LANDING: 16:22
GATE ARRIVAL: 16:29
FLIGHT DATA
Crew: 
Speed: 
499 kts
Altitude: 
38,008 ft
Stage Length: 
752.6 nm
Block Time: 
2.2 hrs
Flight Time: 
1.9 hrs
Fuel Used: 
31,994 lb
Cleared Route: 
TRACK DATA
50,000 ft 1,000 kts
AIRCRAFT INFO AND CUMULATIVE STATS
Aircraft Type: 
B77W
Registration: 
SELCAL: 
CPDJ
MSN/LN: 
31549 / 1257
Operator: 
Total Flights: 
6
Total Block Time: 
48.7 hrs
Total Flight Time: 
46.6 hrs
Total Fuel Used: 
842,296 lb
DATALINK LOG | Newest first | Current as of: 2022-08-19 17:34:20
LABEL SEQUENCE CONTENT Dn/Up
QD310216:29 18.4▼ Dn
QC235616:22▼ Dn
2U0931KPHX 051551Z 08005KT 10SM CLR 08/M08 A3029 RMK AO2 SLP254 T00831083▲ Up
2S1044KPHX▼ Dn
5Z43205 DEC 20 15:41:38z / FLT DECK GOOD / ACF POS GOOD / GRND SERVICES GOOD / MAINT GOOD▼ Dn
GA4329GATE 23▲ Up
GR4318KPHX --:-- MAAS 05 YP/UM 04/03 WCHR/S/C 00/01/02 HI-VAL NO DIPL/VIP YES▼ Dn
2U4157KPHX 051451Z 10004KT 10SM CLR 06/M09 A3027 RMK AO2 SLP248 T00611089 53017▲ Up
2S4217KPHX▼ Dn
QB300714:28▼ Dn
QA155314:14 50.4▼ Dn
5U4920KPHX 051744Z 10005KT 10SM SKC 07/M09 A3022▲ Up
2U4917KDFW 051253Z 00000KT 10SM SCT220 02/M01 A3024 RMK AO2 SLP239 T00171011▲ Up
5S5032KPHX▼ Dn
2S5031KDFW▼ Dn
A35030CLEARED TO KPHX VIA HRPER3 HULZE TCC J78 ZUN EAGUL6. SQUAWK 1061.▲ Up
Q04929[LINK ACK]▲ Up
Q04929[LINK TEST]▼ Dn


AIRCRAFT HISTORY
FLIGHT DATE FLIGHT NO. ORIGIN DESTINATION CLEARED ROUTE BLOCK TIME FLIGHT TIME FUEL USED PILOT
2021-09-26AAL926KDFW RKSI KDFW SPERA JGIRL CORTS BIGGD CMORE BLECO ZEMMA ICT LNK FAR HML ZOMTA YWG 55N00 61N10 64N20 67N30 ADREW LISKI BABAD PEMID GONAM ABILA RULOD ADALU OSKON GUBAD TINID IDNOR RIPTA BANOT RELDI DIREB SOPIN NILOT GITAK GIRUD LUSAK KUNON LUPAT OBUTA IBOLI OLGIR SUKOP LAPNI BESPA OGNIT PENOK ODEKA MAGIT JMU IGADO HRB PABKI PAGDO ISBOP NULRA LJB LEMOT NUBKI BIDIB ISKEM TOSID NODAL CHI SANKO OBDIS DONVO AGAVO RILRO GONAV BODOL REBIT COWAY PINGO CW001 CW002 CW003 CW004 CW005 PAMBI RW34R14.3 hrs13.9 hrs270,304 lbRandall Smith
2021-03-24AAL8439RJAA KDFW RJAA GULBO TASID NOLAX IDLAN ADNAP ADGOR AGEDI PASRO POWAL PLADO PINSO PINTT PTZGR CHUUK ODK CJAYY GRIZZ HMPTN KATCH FINGS YAZNB CFPXC TOU OLM SUMMA WANTA JELTI HOVEL VELUY BYI PIMIE NAGNE BONGO PITMN TAYLR GOSIP KENTO PNH TURKI KDFW11.2 hrs10.8 hrs187,718 lbRyan Syferd
2020-12-13AAL2822KORD RJAA KORD PMPKN NEATO DLLAN RONIC BAE BGOSH DLH 5096N 52N00 53N10 ELKIE 55N30 57N40 59N50 60N60 NOLTI NAYLD NULUK ONEIL OPAKE OLCOT OPHET OGDEN OMOTO OPULO ONEMU OATIS VESET UGTAN NOGIX OLDIV LESPO SUPOK SOFIA AA458 AA459 AA460 AA461 BELKS PEAKS TYLER GIINA RW34L12.5 hrs12.2 hrs215,578 lbGeorge
2020-12-13AAL1163KLAX KORD KLAX HIIPR ADORE SHAEF PEVEE HOLTZ DOTSS EYEDL HOMER CLEEE PKE LANCY DRK KEYKE GUP CIM LBL VARNR ICT ROKNE DOSOA BUM SCAWT ELSTO WELTS MCDEE CASHN VINCA MAROC TRICH TRTLL HIHRY RINNO JORJO MONKZ TONIE HAZIL RW28C3.5 hrs3.1 hrs57,076 lbGeorge
2020-12-12AAL254PHOG KLAX PHOG CLUTS CEBEN CIVIT FLEXX GITLE GALIP AUDIA SNAXX SERCO HUULL GNZZO RYDRR KEVVI BAYST JUUSE CLIFY DAHJR GADDO HUNDA RW25L5 hrs4.6 hrs79,625 lbGeorge
2020-12-05AAL520KDFW KPHX 2.2 hrs1.9 hrs31,994 lbGeorge